Attleboro Falls, Massachusetts
Current Conditions -  °F | °C
As of 9:35 PM on Friday 24 Oct 2014 (Local Time) from KSFZ Reporting Station
Overcast Overcast  
Wind Chill: 46°   Ceiling: 2400
Heat Index: 48°   Visibility: 10mi
Dew Point: 36°   Wind: 6mph
Humidity: 62%   Direction: 310°NW
Pressure: 29.74"   Gusts: NA
Location:  41.97°N, 71.32°W
Report Text: KSFZ 250135Z 31005KT 10SM OVC024 09/02 A2974 RMK AO1
Loading
Personal Weather Stations






























Interactive Weather Map
Tropical Storm Tracking
New forecast layout! Learn more

10-Day Weather Forecast

Advertisements
Track Severe Weather on mobile